Time,TemperatureF,DewpointF,PressureIn,WindDirection,WindDirectionDegrees,WindSpeedMPH,WindSpeedGustMPH,Humidity,HourlyPrecipIn,Conditions,Clouds,dailyrainin,SoftwareType,DateUTC
2013-03-10 00:02:00,53.6,52.2,29.68,SE,135,4.7,5.4,95,0.20,,,0.00,WUHU216HW,2013-03-10 06:02:00,
2013-03-10 00:07:00,53.6,52.2,29.67,ESE,113,6.3,6.3,95,0.17,,,0.00,WUHU216HW,2013-03-10 06:07:00,
2013-03-10 00:12:00,53.8,52.4,29.68,SE,135,5.1,6.3,95,0.12,,,0.00,WUHU216HW,2013-03-10 06:12:00,
2013-03-10 00:18:00,53.8,52.4,29.69,SSE,158,6.3,6.3,95,0.08,,,0.00,WUHU216HW,2013-03-10 06:18:00,
2013-03-10 00:23:00,53.8,52.4,29.71,SSE,158,7.8,9.4,95,0.04,,,0.00,WUHU216HW,2013-03-10 06:23:00,
2013-03-10 00:28:00,54.0,52.6,29.71,SSE,158,8.5,9.4,95,0.01,,,0.00,WUHU216HW,2013-03-10 06:28:00,
2013-03-10 00:33:00,54.0,52.6,29.70,SE,135,7.6,8.7,95,0.00,,,0.00,WUHU216HW,2013-03-10 06:33:00,
2013-03-10 00:38:00,54.0,52.6,29.70,SE,135,6.9,9.2,95,0.00,,,0.00,WUHU216HW,2013-03-10 06:38:00,
2013-03-10 00:43:00,54.0,52.6,29.71,SSE,158,6.0,9.6,95,0.00,,,0.00,WUHU216HW,2013-03-10 06:43:00,
2013-03-10 00:48:00,54.2,52.7,29.70,SSE,158,6.5,9.6,95,0.00,,,0.00,WUHU216HW,2013-03-10 06:48:00,
2013-03-10 00:54:00,54.2,52.7,29.70,SSE,158,5.8,9.2,95,0.00,,,0.00,WUHU216HW,2013-03-10 06:54:00,
2013-03-10 00:59:00,54.2,52.7,29.70,SE,135,6.7,8.9,95,0.00,,,0.00,WUHU216HW,2013-03-10 06:59:00,
2013-03-10 01:04:00,54.2,52.5,29.70,SE,135,6.7,8.9,94,0.00,,,0.00,WUHU216HW,2013-03-10 07:04:00,
2013-03-10 01:09:00,54.4,51.2,29.69,SSE,158,6.0,8.9,89,0.00,,,0.00,WUHU216HW,2013-03-10 07:09:00,
2013-03-10 01:14:00,55.4,50.6,29.68,ESE,113,7.6,14.1,84,0.00,,,0.00,WUHU216HW,2013-03-10 07:14:00,
2013-03-10 01:19:00,55.4,50.9,29.68,SE,135,6.9,14.1,85,0.00,,,0.00,WUHU216HW,2013-03-10 07:19:00,
2013-03-10 01:24:00,55.3,50.1,29.67,SE,135,7.6,10.5,83,0.00,,,0.00,WUHU216HW,2013-03-10 07:24:00,
2013-03-10 01:29:00,55.6,50.1,29.68,SSE,158,8.5,9.6,82,0.00,,,0.00,WUHU216HW,2013-03-10 07:29:00,
2013-03-10 01:34:00,55.3,49.8,29.68,SSE,158,6.3,9.6,82,0.00,,,0.00,WUHU216HW,2013-03-10 07:34:00,
2013-03-10 01:39:00,55.1,50.0,29.70,SSE,158,5.6,8.5,83,0.00,,,0.00,WUHU216HW,2013-03-10 07:39:00,
2013-03-10 01:45:00,55.3,49.1,29.69,SSE,158,8.3,12.3,80,0.00,,,0.00,WUHU216HW,2013-03-10 07:45:00,
2013-03-10 01:50:00,55.3,49.8,29.68,SE,135,6.3,12.3,82,0.00,,,0.00,WUHU216HW,2013-03-10 07:50:00,
2013-03-10 01:55:00,54.9,49.5,29.68,SE,135,7.2,10.1,82,0.00,,,0.00,WUHU216HW,2013-03-10 07:55:00,
2013-03-10 03:00:00,54.7,49.6,29.67,SE,135,5.1,10.1,83,0.00,,,0.00,WUHU216HW,2013-03-10 08:00:00,
2013-03-10 03:05:00,54.7,50.0,29.66,SE,135,3.6,8.9,84,0.00,,,0.23,WUHU216HW,2013-03-10 08:05:00,
2013-03-10 03:10:00,54.4,50.0,29.65,SE,135,7.2,8.9,85,0.00,,,0.23,WUHU216HW,2013-03-10 08:10:00,
2013-03-10 03:15:00,54.4,50.2,29.65,SE,135,5.4,7.2,86,0.00,,,0.23,WUHU216HW,2013-03-10 08:15:00,
2013-03-10 03:20:00,53.8,49.7,29.66,SE,135,5.1,7.2,86,0.00,,,0.23,WUHU216HW,2013-03-10 08:20:00,
2013-03-10 03:25:00,53.8,50.1,29.65,SE,135,6.7,6.9,87,0.00,,,0.23,WUHU216HW,2013-03-10 08:25:00,
2013-03-10 03:30:00,53.6,50.1,29.66,SE,135,7.4,7.6,88,0.00,,,0.23,WUHU216HW,2013-03-10 08:30:00,
2013-03-10 03:35:00,53.5,50.3,29.67,SSE,158,5.8,7.6,89,0.00,,,0.23,WUHU216HW,2013-03-10 08:35:00,
2013-03-10 03:40:00,53.5,50.3,29.67,SSE,158,4.7,7.4,89,0.00,,,0.23,WUHU216HW,2013-03-10 08:40:00,
2013-03-10 03:45:00,53.6,50.1,29.68,SSE,158,6.3,8.5,88,0.00,,,0.23,WUHU216HW,2013-03-10 08:45:00,
2013-03-10 03:51:00,53.6,50.1,29.69,South,180,9.8,9.8,88,0.00,,,0.23,WUHU216HW,2013-03-10 08:51:00,
2013-03-10 03:56:00,53.8,50.3,29.72,South,180,5.6,9.8,88,0.00,,,0.23,WUHU216HW,2013-03-10 08:56:00,
2013-03-10 04:01:00,54.0,50.5,29.73,WSW,248,6.9,8.9,88,0.00,,,0.23,WUHU216HW,2013-03-10 09:01:00,
2013-03-10 04:06:00,54.0,50.5,29.74,SSW,203,12.5,12.5,88,0.00,,,0.23,WUHU216HW,2013-03-10 09:06:00,
2013-03-10 04:11:00,54.0,50.9,29.73,SSE,158,11.9,14.1,89,0.00,,,0.23,WUHU216HW,2013-03-10 09:11:00,
2013-03-10 04:16:00,54.0,51.1,29.73,South,180,12.1,14.1,90,0.00,,,0.23,WUHU216HW,2013-03-10 09:16:00,
2013-03-10 04:21:00,54.0,51.1,29.72,South,180,14.3,16.3,90,0.02,,,0.25,WUHU216HW,2013-03-10 09:21:00,
2013-03-10 04:27:00,53.3,49.5,29.72,SSW,203,8.3,16.3,87,0.05,,,0.28,WUHU216HW,2013-03-10 09:27:00,
2013-03-10 04:32:00,52.9,47.6,29.71,South,180,4.9,15.0,82,0.07,,,0.30,WUHU216HW,2013-03-10 09:32:00,
2013-03-10 04:37:00,52.7,48.1,29.72,South,180,6.9,10.1,84,0.10,,,0.32,WUHU216HW,2013-03-10 09:37:00,
2013-03-10 04:42:00,52.2,47.8,29.72,SW,225,4.0,8.3,85,0.12,,,0.35,WUHU216HW,2013-03-10 09:42:00,
2013-03-10 04:47:00,51.8,47.7,29.73,SW,225,4.5,7.2,86,0.12,,,0.35,WUHU216HW,2013-03-10 09:47:00,
2013-03-10 04:52:00,51.7,48.2,29.73,SW,225,3.8,7.2,88,0.14,,,0.37,WUHU216HW,2013-03-10 09:52:00,
2013-03-10 04:57:00,51.3,47.8,29.71,SE,135,3.6,5.8,88,0.14,,,0.37,WUHU216HW,2013-03-10 09:57:00,
2013-03-10 05:02:00,51.1,48.0,29.71,SSW,203,2.5,5.4,89,0.16,,,0.38,WUHU216HW,2013-03-10 10:02:00,
2013-03-10 05:07:00,50.8,47.6,29.70,SW,225,0.9,3.6,89,0.17,,,0.40,WUHU216HW,2013-03-10 10:07:00,
2013-03-10 05:12:00,50.6,47.4,29.71,SSW,203,1.8,1.8,89,0.17,,,0.40,WUHU216HW,2013-03-10 10:12:00,
2013-03-10 05:17:00,50.4,46.9,29.71,SW,225,2.0,2.9,88,0.17,,,0.40,WUHU216HW,2013-03-10 10:17:00,
2013-03-10 05:22:00,50.4,47.5,29.71,SW,225,1.6,2.9,90,0.13,,,0.40,WUHU216HW,2013-03-10 10:22:00,
2013-03-10 05:28:00,50.4,47.5,29.72,SSW,203,2.7,2.7,90,0.12,,,0.40,WUHU216HW,2013-03-10 10:28:00,
2013-03-10 05:33:00,50.4,47.8,29.71,SSW,203,1.3,3.6,91,0.11,,,0.41,WUHU216HW,2013-03-10 10:33:00,
2013-03-10 05:38:00,50.2,47.6,29.70,SE,135,1.8,3.6,91,0.10,,,0.42,WUHU216HW,2013-03-10 10:38:00,
2013-03-10 05:43:00,50.0,47.7,29.70,SSE,158,2.5,3.1,92,0.08,,,0.43,WUHU216HW,2013-03-10 10:43:00,
2013-03-10 05:48:00,50.0,47.7,29.71,SSE,158,3.4,4.3,92,0.08,,,0.44,WUHU216HW,2013-03-10 10:48:00,
2013-03-10 05:53:00,50.0,48.1,29.73,South,180,3.8,6.3,93,0.08,,,0.46,WUHU216HW,2013-03-10 10:53:00,
2013-03-10 05:58:00,50.0,48.1,29.73,South,180,4.5,6.3,93,0.10,,,0.47,WUHU216HW,2013-03-10 10:58:00,
2013-03-10 06:03:00,50.0,48.1,29.74,SSE,158,4.7,6.0,93,0.10,,,0.48,WUHU216HW,2013-03-10 11:03:00,
2013-03-10 06:08:00,49.9,47.9,29.74,South,180,4.7,6.3,93,0.10,,,0.49,WUHU216HW,2013-03-10 11:08:00,
2013-03-10 06:13:00,49.9,47.9,29.75,SE,135,6.3,6.3,93,0.11,,,0.50,WUHU216HW,2013-03-10 11:13:00,
2013-03-10 06:18:00,49.9,47.9,29.75,SSE,158,6.9,8.1,93,0.11,,,0.50,WUHU216HW,2013-03-10 11:18:00,
2013-03-10 06:24:00,49.9,47.9,29.76,SSE,158,4.7,8.3,93,0.12,,,0.52,WUHU216HW,2013-03-10 11:24:00,
2013-03-10 06:29:00,49.9,47.9,29.76,SSE,158,4.3,8.5,93,0.12,,,0.53,WUHU216HW,2013-03-10 11:29:00,
2013-03-10 06:34:00,49.7,47.7,29.72,SE,135,4.3,7.6,93,0.14,,,0.55,WUHU216HW,2013-03-10 11:34:00,
2013-03-10 06:39:00,49.7,48.0,29.70,ESE,113,5.4,7.2,94,0.16,,,0.58,WUHU216HW,2013-03-10 11:39:00,
2013-03-10 06:44:00,49.7,48.0,29.71,SSE,158,6.7,6.7,94,0.14,,,0.59,WUHU216HW,2013-03-10 11:44:00,
2013-03-10 06:49:00,49.7,48.0,29.72,SSE,158,7.6,7.6,94,0.14,,,0.59,WUHU216HW,2013-03-10 11:49:00,
2013-03-10 06:55:00,49.7,48.0,29.71,SSE,158,4.7,7.6,94,0.14,,,0.61,WUHU216HW,2013-03-10 11:55:00,
2013-03-10 07:00:00,49.7,48.0,29.71,SE,135,4.0,6.5,94,0.16,,,0.62,WUHU216HW,2013-03-10 12:00:00,
2013-03-10 07:05:00,49.5,47.8,29.72,SSW,203,4.5,4.9,94,0.16,,,0.64,WUHU216HW,2013-03-10 12:05:00,
2013-03-10 07:10:00,49.7,48.0,29.72,SE,135,6.0,6.3,94,0.14,,,0.64,WUHU216HW,2013-03-10 12:10:00,
2013-03-10 07:15:00,49.7,48.0,29.73,SE,135,8.1,8.1,94,0.14,,,0.65,WUHU216HW,2013-03-10 12:15:00,
2013-03-10 07:20:00,49.5,47.8,29.71,SE,135,4.9,8.1,94,0.13,,,0.65,WUHU216HW,2013-03-10 12:20:00,
2013-03-10 07:25:00,49.5,47.8,29.72,SSE,158,6.3,8.5,94,0.14,,,0.66,WUHU216HW,2013-03-10 12:25:00,
2013-03-10 07:30:00,49.7,48.0,29.69,SE,135,4.9,8.5,94,0.14,,,0.68,WUHU216HW,2013-03-10 12:30:00,
2013-03-10 07:35:00,49.5,47.8,29.67,ESE,113,4.0,8.3,94,0.13,,,0.70,WUHU216HW,2013-03-10 12:35:00,
2013-03-10 07:40:00,49.3,47.6,29.66,ESE,113,4.5,6.3,94,0.14,,,0.73,WUHU216HW,2013-03-10 12:40:00,
2013-03-10 07:45:00,49.3,47.6,29.67,ESE,113,4.7,6.9,94,0.17,,,0.76,WUHU216HW,2013-03-10 12:45:00,
2013-03-10 07:50:00,49.3,47.9,29.67,SE,135,4.7,6.9,95,0.17,,,0.76,WUHU216HW,2013-03-10 12:50:00,
2013-03-10 07:55:00,49.3,47.9,29.70,SSE,158,6.9,7.6,95,0.14,,,0.76,WUHU216HW,2013-03-10 12:55:00,
2013-03-10 08:00:00,49.3,47.6,29.71,SSE,158,6.3,8.7,94,0.12,,,0.76,WUHU216HW,2013-03-10 13:00:00,
2013-03-10 08:06:00,49.3,47.6,29.71,SSE,158,9.2,9.2,94,0.12,,,0.76,WUHU216HW,2013-03-10 13:06:00,
2013-03-10 08:11:00,49.3,47.6,29.71,SSE,158,6.5,9.2,94,0.13,,,0.77,WUHU216HW,2013-03-10 13:11:00,
2013-03-10 08:16:00,49.3,47.6,29.70,SE,135,7.6,10.5,94,0.12,,,0.77,WUHU216HW,2013-03-10 13:16:00,
2013-03-10 08:21:00,49.3,47.6,29.69,SE,135,9.6,10.5,94,0.13,,,0.78,WUHU216HW,2013-03-10 13:21:00,
2013-03-10 08:26:00,49.1,47.4,29.71,SE,135,7.2,10.5,94,0.13,,,0.79,WUHU216HW,2013-03-10 13:26:00,
2013-03-10 08:31:00,49.3,47.6,29.71,SE,135,9.2,13.4,94,0.13,,,0.82,WUHU216HW,2013-03-10 13:31:00,
2013-03-10 08:36:00,49.3,47.6,29.72,SSE,158,8.1,13.4,94,0.11,,,0.82,WUHU216HW,2013-03-10 13:36:00,
2013-03-10 08:41:00,49.1,47.4,29.71,SE,135,6.7,11.0,94,0.11,,,0.84,WUHU216HW,2013-03-10 13:41:00,
2013-03-10 08:46:00,49.0,47.4,29.69,SE,135,10.3,12.5,94,0.11,,,0.86,WUHU216HW,2013-03-10 13:46:00,
2013-03-10 08:51:00,48.8,47.2,29.66,ESE,113,6.9,12.5,94,0.11,,,0.86,WUHU216HW,2013-03-10 13:51:00,
2013-03-10 08:57:00,48.8,47.2,29.66,SSE,158,6.9,9.8,94,0.11,,,0.86,WUHU216HW,2013-03-10 13:57:00,
2013-03-10 09:02:00,48.8,47.2,29.67,ESE,113,7.8,9.8,94,0.11,,,0.86,WUHU216HW,2013-03-10 14:02:00,
2013-03-10 09:07:00,49.0,47.0,29.66,SE,135,6.3,9.6,93,0.11,,,0.86,WUHU216HW,2013-03-10 14:07:00,
2013-03-10 09:12:00,48.8,47.2,29.65,SE,135,4.7,9.8,94,0.10,,,0.86,WUHU216HW,2013-03-10 14:12:00,
2013-03-10 09:17:00,48.8,46.9,29.69,SSW,203,4.0,9.8,93,0.08,,,0.86,WUHU216HW,2013-03-10 14:17:00,
2013-03-10 09:22:00,49.0,47.0,29.67,SE,135,5.8,7.4,93,0.07,,,0.86,WUHU216HW,2013-03-10 14:22:00,
2013-03-10 09:27:00,48.8,46.9,29.67,SSE,158,5.1,6.7,93,0.07,,,0.86,WUHU216HW,2013-03-10 14:27:00,
2013-03-10 09:32:00,48.8,46.9,29.68,SSE,158,6.9,6.9,93,0.05,,,0.86,WUHU216HW,2013-03-10 14:32:00,
2013-03-10 09:38:00,49.0,47.0,29.70,South,180,7.2,8.5,93,0.02,,,0.86,WUHU216HW,2013-03-10 14:38:00,
2013-03-10 09:43:00,48.8,46.9,29.69,SE,135,4.7,8.5,93,0.00,,,0.86,WUHU216HW,2013-03-10 14:43:00,
2013-03-10 09:48:00,48.6,46.7,29.67,SE,135,7.6,8.9,93,0.00,,,0.86,WUHU216HW,2013-03-10 14:48:00,
2013-03-10 09:53:00,48.8,47.2,29.66,ESE,113,7.8,8.9,94,0.00,,,0.86,WUHU216HW,2013-03-10 14:53:00,
2013-03-10 09:58:00,49.0,47.4,29.70,South,180,7.6,8.7,94,0.00,,,0.86,WUHU216HW,2013-03-10 14:58:00,
2013-03-10 10:03:00,49.0,47.4,29.70,SSE,158,5.4,9.6,94,0.00,,,0.86,WUHU216HW,2013-03-10 15:03:00,
2013-03-10 10:08:00,49.0,47.0,29.70,South,180,6.3,9.6,93,0.00,,,0.86,WUHU216HW,2013-03-10 15:08:00,
2013-03-10 10:13:00,49.0,47.0,29.71,SE,135,6.0,6.7,93,0.00,,,0.86,WUHU216HW,2013-03-10 15:13:00,
2013-03-10 10:18:00,49.0,47.0,29.71,SSE,158,6.9,7.6,93,0.00,,,0.86,WUHU216HW,2013-03-10 15:18:00,
2013-03-10 10:23:00,49.0,47.0,29.72,South,180,2.5,7.6,93,0.00,,,0.86,WUHU216HW,2013-03-10 15:23:00,
2013-03-10 10:29:00,49.0,47.0,29.70,South,180,2.5,5.6,93,0.00,,,0.86,WUHU216HW,2013-03-10 15:29:00,
2013-03-10 10:34:00,49.0,47.0,29.72,SSW,203,1.6,4.3,93,0.02,,,0.89,WUHU216HW,2013-03-10 15:34:00,
2013-03-10 10:39:00,49.0,47.0,29.68,SE,135,1.8,4.3,93,0.02,,,0.89,WUHU216HW,2013-03-10 15:39:00,
2013-03-10 10:44:00,49.3,47.6,29.67,ESE,113,6.3,6.3,94,0.04,,,0.90,WUHU216HW,2013-03-10 15:44:00,
2013-03-10 10:49:00,49.5,47.8,29.70,South,180,4.5,6.7,94,0.04,,,0.90,WUHU216HW,2013-03-10 15:49:00,
2013-03-10 10:54:00,49.7,47.4,29.69,SSE,158,4.3,6.7,92,0.04,,,0.90,WUHU216HW,2013-03-10 15:54:00,
2013-03-10 10:59:00,49.5,47.3,29.68,SSE,158,4.9,5.6,92,0.04,,,0.90,WUHU216HW,2013-03-10 15:59:00,
2013-03-10 11:04:00,49.5,47.3,29.67,SSE,158,4.7,5.6,92,0.04,,,0.90,WUHU216HW,2013-03-10 16:04:00,
2013-03-10 11:09:00,49.5,47.3,29.66,SSW,203,1.6,5.4,92,0.04,,,0.90,WUHU216HW,2013-03-10 16:09:00,
2013-03-10 11:15:00,49.7,47.7,29.68,SSE,158,5.1,5.1,93,0.04,,,0.90,WUHU216HW,2013-03-10 16:15:00,
2013-03-10 11:20:00,49.7,46.8,29.69,South,180,4.9,10.3,90,0.04,,,0.90,WUHU216HW,2013-03-10 16:20:00,
2013-03-10 11:25:00,49.7,47.2,29.68,West,270,4.0,10.3,91,0.04,,,0.90,WUHU216HW,2013-03-10 16:25:00,
2013-03-10 11:30:00,49.7,47.2,29.68,WSW,248,7.6,7.6,91,0.01,,,0.90,WUHU216HW,2013-03-10 16:30:00,
2013-03-10 11:35:00,50.0,47.4,29.68,WSW,248,5.1,7.6,91,0.01,,,0.90,WUHU216HW,2013-03-10 16:35:00,
2013-03-10 11:40:00,50.8,48.2,29.69,SW,225,4.0,7.6,91,0.01,,,0.90,WUHU216HW,2013-03-10 16:40:00,
2013-03-10 11:45:00,51.7,48.5,29.70,WSW,248,3.4,7.8,89,0.00,,,0.90,WUHU216HW,2013-03-10 16:45:00,
2013-03-10 11:51:00,51.5,48.3,29.70,SW,225,4.7,7.8,89,0.00,,,0.90,WUHU216HW,2013-03-10 16:51:00,
2013-03-10 11:56:00,51.3,48.2,29.69,WSW,248,4.9,8.3,89,0.00,,,0.90,WUHU216HW,2013-03-10 16:56:00,
2013-03-10 12:01:00,52.2,49.1,29.69,SW,225,6.9,8.3,89,0.00,,,0.90,WUHU216HW,2013-03-10 17:01:00,
2013-03-10 12:06:00,52.6,48.8,29.68,SW,225,2.9,6.9,87,0.00,,,0.90,WUHU216HW,2013-03-10 17:06:00,
2013-03-10 12:11:00,52.2,48.1,29.68,SSW,203,7.2,9.2,86,0.00,,,0.90,WUHU216HW,2013-03-10 17:11:00,
2013-03-10 12:16:00,52.0,47.9,29.68,SSW,203,8.7,9.2,86,0.00,,,0.90,WUHU216HW,2013-03-10 17:16:00,
2013-03-10 12:21:00,51.7,47.9,29.68,WSW,248,4.5,8.7,87,0.00,,,0.90,WUHU216HW,2013-03-10 17:21:00,
2013-03-10 12:26:00,51.5,48.0,29.68,SW,225,6.3,7.8,88,0.00,,,0.90,WUHU216HW,2013-03-10 17:26:00,
2013-03-10 12:31:00,51.5,48.0,29.68,SW,225,7.6,7.6,88,0.00,,,0.90,WUHU216HW,2013-03-10 17:31:00,
2013-03-10 12:37:00,51.1,47.4,29.68,SSW,203,7.6,7.6,87,0.00,,,0.90,WUHU216HW,2013-03-10 17:37:00,
2013-03-10 12:42:00,50.4,46.6,29.68,WSW,248,4.3,11.4,87,0.00,,,0.90,WUHU216HW,2013-03-10 17:42:00,
2013-03-10 12:47:00,48.8,45.4,29.69,West,270,12.3,15.9,88,0.00,,,0.90,WUHU216HW,2013-03-10 17:47:00,
2013-03-10 12:52:00,46.4,43.5,29.70,NW,315,12.1,15.9,89,0.00,,,0.90,WUHU216HW,2013-03-10 17:52:00,
2013-03-10 12:57:00,45.0,42.3,29.71,WNW,293,13.6,16.1,90,0.00,,,0.90,WUHU216HW,2013-03-10 17:57:00,
2013-03-10 13:02:00,44.1,41.4,29.71,West,270,15.0,16.1,90,0.00,,,0.90,WUHU216HW,2013-03-10 18:02:00,
2013-03-10 13:07:00,43.7,41.0,29.71,West,270,6.5,15.7,90,0.00,,,0.90,WUHU216HW,2013-03-10 18:07:00,
2013-03-10 13:13:00,43.4,41.0,29.71,WNW,293,14.8,14.8,91,0.00,,,0.90,WUHU216HW,2013-03-10 18:13:00,
2013-03-10 13:18:00,43.0,40.6,29.72,West,270,13.6,14.8,91,0.00,,,0.90,WUHU216HW,2013-03-10 18:18:00,
2013-03-10 13:23:00,42.8,40.4,29.72,West,270,7.8,15.7,91,0.00,,,0.90,WUHU216HW,2013-03-10 18:23:00,
2013-03-10 13:28:00,42.8,40.4,29.72,West,270,12.5,15.7,91,0.00,,,0.90,WUHU216HW,2013-03-10 18:28:00,
2013-03-10 13:33:00,42.8,40.4,29.73,WNW,293,8.5,12.5,91,0.00,,,0.90,WUHU216HW,2013-03-10 18:33:00,
2013-03-10 13:38:00,42.7,40.2,29.73,WNW,293,12.8,12.8,91,0.00,,,0.90,WUHU216HW,2013-03-10 18:38:00,
2013-03-10 13:43:00,42.7,40.2,29.73,WSW,248,10.1,12.8,91,0.00,,,0.90,WUHU216HW,2013-03-10 18:43:00,
2013-03-10 13:48:00,42.5,40.1,29.73,WSW,248,7.8,13.6,91,0.00,,,0.90,WUHU216HW,2013-03-10 18:48:00,
2013-03-10 13:53:00,42.1,39.7,29.73,West,270,9.8,13.4,91,0.00,,,0.90,WUHU216HW,2013-03-10 18:53:00,
2013-03-10 13:58:00,42.1,39.7,29.74,WSW,248,9.4,11.9,91,0.00,,,0.90,WUHU216HW,2013-03-10 18:58:00,
2013-03-10 14:04:00,42.1,39.7,29.74,West,270,14.5,14.5,91,0.00,,,0.90,WUHU216HW,2013-03-10 19:04:00,
2013-03-10 14:09:00,41.9,39.5,29.74,WSW,248,9.8,14.5,91,0.00,,,0.90,WUHU216HW,2013-03-10 19:09:00,
2013-03-10 14:14:00,41.9,39.5,29.74,WSW,248,8.5,12.1,91,0.00,,,0.90,WUHU216HW,2013-03-10 19:14:00,
2013-03-10 14:19:00,41.9,39.5,29.74,NW,315,5.4,12.5,91,0.00,,,0.90,WUHU216HW,2013-03-10 19:19:00,
2013-03-10 14:24:00,41.8,39.3,29.74,West,270,9.6,12.5,91,0.00,,,0.90,WUHU216HW,2013-03-10 19:24:00,
2013-03-10 14:29:00,41.8,39.3,29.74,West,270,8.1,12.5,91,0.00,,,0.90,WUHU216HW,2013-03-10 19:29:00,
2013-03-10 14:34:00,41.6,39.2,29.74,WSW,248,6.0,12.5,91,0.00,,,0.90,WUHU216HW,2013-03-10 19:34:00,
2013-03-10 14:39:00,41.6,39.2,29.74,WSW,248,7.2,11.9,91,0.00,,,0.90,WUHU216HW,2013-03-10 19:39:00,
2013-03-10 14:44:00,41.4,39.2,29.74,West,270,7.6,11.9,92,0.00,,,0.90,WUHU216HW,2013-03-10 19:44:00,
2013-03-10 14:50:00,41.6,39.4,29.75,WSW,248,6.9,11.4,92,0.00,,,0.90,WUHU216HW,2013-03-10 19:50:00,
2013-03-10 14:55:00,41.6,39.4,29.75,West,270,9.8,9.8,92,0.00,,,0.90,WUHU216HW,2013-03-10 19:55:00,
2013-03-10 15:00:00,41.4,39.2,29.76,WSW,248,3.4,9.8,92,0.00,,,0.90,WUHU216HW,2013-03-10 20:00:00,
2013-03-10 15:05:00,41.0,38.9,29.76,WNW,293,4.9,9.2,92,0.00,,,0.90,WUHU216HW,2013-03-10 20:05:00,
2013-03-10 15:10:00,40.7,38.5,29.76,SW,225,8.5,10.5,92,0.00,,,0.90,WUHU216HW,2013-03-10 20:10:00,
2013-03-10 15:15:00,40.3,38.2,29.76,West,270,7.2,10.5,92,0.00,,,0.90,WUHU216HW,2013-03-10 20:15:00,
2013-03-10 15:20:00,40.3,38.2,29.77,West,270,8.9,13.4,92,0.00,,,0.90,WUHU216HW,2013-03-10 20:20:00,
2013-03-10 15:25:00,40.3,38.4,29.77,SSW,203,6.3,13.4,93,0.00,,,0.90,WUHU216HW,2013-03-10 20:25:00,
2013-03-10 15:30:00,40.1,38.3,29.77,West,270,6.9,11.4,93,0.00,,,0.90,WUHU216HW,2013-03-10 20:30:00,
2013-03-10 15:35:00,40.1,38.3,29.78,West,270,5.1,8.9,93,0.00,,,0.90,WUHU216HW,2013-03-10 20:35:00,
2013-03-10 15:40:00,40.0,38.1,29.78,West,270,6.9,11.0,93,0.01,,,0.91,WUHU216HW,2013-03-10 20:40:00,
2013-03-10 15:45:00,40.0,38.1,29.78,West,270,6.7,11.0,93,0.01,,,0.91,WUHU216HW,2013-03-10 20:45:00,
2013-03-10 15:50:00,39.8,37.9,29.78,West,270,7.6,10.3,93,0.01,,,0.91,WUHU216HW,2013-03-10 20:50:00,
2013-03-10 15:55:00,39.6,37.7,29.78,WNW,293,4.9,11.2,93,0.01,,,0.91,WUHU216HW,2013-03-10 20:55:00,
2013-03-10 16:00:00,39.4,37.5,29.79,WNW,293,9.6,11.2,93,0.01,,,0.91,WUHU216HW,2013-03-10 21:00:00,
2013-03-10 16:06:00,39.2,37.4,29.79,WSW,248,8.3,10.7,93,0.01,,,0.91,WUHU216HW,2013-03-10 21:06:00,
2013-03-10 16:11:00,39.2,37.4,29.79,WSW,248,8.1,11.2,93,0.01,,,0.91,WUHU216HW,2013-03-10 21:11:00,
2013-03-10 16:16:00,39.2,37.1,29.79,West,270,8.9,11.2,92,0.01,,,0.91,WUHU216HW,2013-03-10 21:16:00,
2013-03-10 16:21:00,39.2,37.1,29.79,West,270,9.4,10.3,92,0.01,,,0.91,WUHU216HW,2013-03-10 21:21:00,
2013-03-10 16:27:00,39.1,36.9,29.79,West,270,8.7,12.1,92,0.01,,,0.91,WUHU216HW,2013-03-10 21:27:00,
2013-03-10 16:32:00,39.2,37.1,29.79,West,270,12.1,12.1,92,0.01,,,0.91,WUHU216HW,2013-03-10 21:32:00,
2013-03-10 16:37:00,38.9,36.5,29.80,West,270,6.0,13.6,91,0.00,,,0.91,WUHU216HW,2013-03-10 21:37:00,
2013-03-10 16:42:00,38.7,36.3,29.80,West,270,10.5,13.6,91,0.00,,,0.91,WUHU216HW,2013-03-10 21:42:00,
2013-03-10 16:47:00,38.5,36.1,29.80,West,270,8.3,10.5,91,0.00,,,0.91,WUHU216HW,2013-03-10 21:47:00,
2013-03-10 16:53:00,38.2,36.0,29.81,WNW,293,6.9,12.8,92,0.00,,,0.91,WUHU216HW,2013-03-10 21:53:00,
2013-03-10 16:58:00,38.0,35.8,29.81,NW,315,6.9,12.8,92,0.00,,,0.91,WUHU216HW,2013-03-10 21:58:00,
2013-03-10 17:03:00,37.8,35.6,29.81,WNW,293,7.4,8.9,92,0.01,,,0.92,WUHU216HW,2013-03-10 22:03:00,
2013-03-10 17:08:00,37.8,35.6,29.81,SW,225,7.6,11.4,92,0.01,,,0.92,WUHU216HW,2013-03-10 22:08:00,
2013-03-10 17:13:00,37.8,35.6,29.81,West,270,14.3,14.3,92,0.01,,,0.92,WUHU216HW,2013-03-10 22:13:00,
2013-03-10 17:18:00,37.3,34.8,29.82,North,0,12.1,14.3,91,0.01,,,0.92,WUHU216HW,2013-03-10 22:18:00,
2013-03-10 17:23:00,36.7,34.0,29.82,WNW,293,10.1,14.5,90,0.01,,,0.92,WUHU216HW,2013-03-10 22:23:00,
2013-03-10 17:28:00,36.9,34.5,29.82,West,270,8.5,14.5,91,0.01,,,0.92,WUHU216HW,2013-03-10 22:28:00,
2013-03-10 17:33:00,36.9,34.5,29.82,West,270,7.8,9.4,91,0.01,,,0.92,WUHU216HW,2013-03-10 22:33:00,
2013-03-10 17:38:00,36.7,34.3,29.82,West,270,8.5,8.5,91,0.01,,,0.92,WUHU216HW,2013-03-10 22:38:00,
2013-03-10 17:43:00,36.7,34.3,29.82,WNW,293,3.8,10.1,91,0.01,,,0.92,WUHU216HW,2013-03-10 22:43:00,
2013-03-10 17:49:00,36.5,34.1,29.83,NNW,338,12.1,12.1,91,0.01,,,0.92,WUHU216HW,2013-03-10 22:49:00,
2013-03-10 17:54:00,36.4,33.9,29.83,WNW,293,15.2,15.2,91,0.01,,,0.92,WUHU216HW,2013-03-10 22:54:00,
2013-03-10 17:59:00,36.0,33.3,29.83,SW,225,10.1,15.2,90,0.00,,,0.92,WUHU216HW,2013-03-10 22:59:00,
2013-03-10 18:04:00,35.6,33.5,29.84,WNW,293,6.5,15.2,92,0.00,,,0.92,WUHU216HW,2013-03-10 23:04:00,
2013-03-10 18:09:00,35.1,32.7,29.84,West,270,7.6,14.3,91,0.00,,,0.92,WUHU216HW,2013-03-10 23:09:00,
2013-03-10 18:14:00,34.9,32.8,29.84,WSW,248,8.3,14.3,92,0.00,,,0.92,WUHU216HW,2013-03-10 23:14:00,
2013-03-10 18:19:00,34.6,32.4,29.84,NNW,338,4.7,12.8,92,0.00,,,0.92,WUHU216HW,2013-03-10 23:19:00,
2013-03-10 18:24:00,34.4,32.2,29.84,WSW,248,8.7,11.0,92,0.00,,,0.92,WUHU216HW,2013-03-10 23:24:00,
2013-03-10 18:29:00,34.0,31.9,29.85,NW,315,9.8,11.4,92,0.00,,,0.92,WUHU216HW,2013-03-10 23:29:00,
2013-03-10 18:34:00,33.8,31.7,29.85,WSW,248,8.3,11.4,92,0.00,,,0.92,WUHU216HW,2013-03-10 23:34:00,
2013-03-10 18:39:00,33.5,31.3,29.86,West,270,10.5,12.1,92,0.00,,,0.92,WUHU216HW,2013-03-10 23:39:00,
2013-03-10 18:44:00,33.3,31.1,29.86,SW,225,10.5,12.1,92,0.00,,,0.92,WUHU216HW,2013-03-10 23:44:00,
2013-03-10 18:49:00,33.1,31.1,29.86,WNW,293,7.4,12.1,92,0.00,,,0.92,WUHU216HW,2013-03-10 23:49:00,
2013-03-10 18:54:00,32.9,31.2,29.86,NNW,338,12.1,14.3,93,0.00,,,0.92,WUHU216HW,2013-03-10 23:54:00,
2013-03-10 19:00:00,32.8,30.7,29.86,NW,315,9.2,12.1,92,0.00,,,0.92,WUHU216HW,2013-03-11 00:00:00,
2013-03-10 19:05:00,32.8,31.0,29.87,WSW,248,9.4,10.3,93,0.00,,,0.92,WUHU216HW,2013-03-11 00:05:00,
2013-03-10 19:10:00,32.4,30.6,29.87,WNW,293,10.5,11.9,93,0.00,,,0.92,WUHU216HW,2013-03-11 00:10:00,
2013-03-10 19:15:00,32.0,29.8,29.87,West,270,10.3,12.1,91,0.00,,,0.92,WUHU216HW,2013-03-11 00:15:00,
2013-03-10 19:20:00,31.9,29.9,29.88,NW,315,6.3,13.4,92,0.00,,,0.92,WUHU216HW,2013-03-11 00:20:00,
2013-03-10 19:25:00,31.7,29.7,29.88,WNW,293,8.5,13.4,92,0.00,,,0.92,WUHU216HW,2013-03-11 00:25:00,
2013-03-10 19:30:00,31.5,29.5,29.88,WNW,293,5.4,13.2,92,0.00,,,0.92,WUHU216HW,2013-03-11 00:30:00,
2013-03-10 19:35:00,31.7,29.7,29.88,West,270,6.7,13.2,92,0.00,,,0.92,WUHU216HW,2013-03-11 00:35:00,
2013-03-10 19:41:00,31.5,29.5,29.89,NW,315,9.8,11.4,92,0.00,,,0.92,WUHU216HW,2013-03-11 00:41:00,
2013-03-10 19:46:00,31.3,29.1,29.89,NW,315,8.5,11.4,91,0.00,,,0.92,WUHU216HW,2013-03-11 00:46:00,
2013-03-10 19:51:00,31.1,28.9,29.89,NW,315,9.8,13.4,91,0.00,,,0.92,WUHU216HW,2013-03-11 00:51:00,
2013-03-10 19:56:00,31.0,28.7,29.89,NW,315,10.1,13.4,91,0.00,,,0.92,WUHU216HW,2013-03-11 00:56:00,
2013-03-10 20:01:00,31.0,29.0,29.89,NW,315,4.9,13.4,92,0.00,,,0.92,WUHU216HW,2013-03-11 01:01:00,
2013-03-10 20:07:00,30.6,28.4,29.89,NW,315,12.1,12.1,91,0.00,,,0.92,WUHU216HW,2013-03-11 01:07:00,
2013-03-10 20:12:00,30.4,28.2,29.89,NW,315,8.7,13.0,91,0.00,,,0.92,WUHU216HW,2013-03-11 01:12:00,
2013-03-10 20:17:00,30.4,28.2,29.90,NW,315,11.0,13.0,91,0.00,,,0.92,WUHU216HW,2013-03-11 01:17:00,
2013-03-10 20:22:00,30.4,28.2,29.90,NW,315,10.5,11.0,91,0.00,,,0.92,WUHU216HW,2013-03-11 01:22:00,
2013-03-10 20:27:00,30.4,28.2,29.90,NW,315,3.8,10.5,91,0.00,,,0.92,WUHU216HW,2013-03-11 01:27:00,
2013-03-10 20:32:00,30.4,28.5,29.90,NW,315,7.2,7.4,92,0.00,,,0.92,WUHU216HW,2013-03-11 01:32:00,
2013-03-10 20:37:00,30.2,28.3,29.90,NW,315,5.4,8.5,92,0.00,,,0.92,WUHU216HW,2013-03-11 01:37:00,
2013-03-10 20:43:00,30.2,28.3,29.90,NW,315,5.1,8.5,92,0.00,,,0.92,WUHU216HW,2013-03-11 01:43:00,
2013-03-10 20:48:00,30.2,28.3,29.91,NW,315,8.1,9.8,92,0.00,,,0.92,WUHU216HW,2013-03-11 01:48:00,
2013-03-10 20:53:00,30.1,28.1,29.91,NW,315,4.0,9.8,92,0.00,,,0.92,WUHU216HW,2013-03-11 01:53:00,
2013-03-10 20:58:00,30.1,28.1,29.91,NW,315,2.2,7.6,92,0.00,,,0.92,WUHU216HW,2013-03-11 01:58:00,
2013-03-10 21:03:00,30.1,28.1,29.91,NW,315,7.2,8.9,92,0.00,,,0.92,WUHU216HW,2013-03-11 02:03:00,
2013-03-10 21:08:00,30.1,28.1,29.91,NW,315,5.4,8.9,92,0.00,,,0.92,WUHU216HW,2013-03-11 02:08:00,
2013-03-10 21:13:00,30.1,27.8,29.91,NW,315,3.6,8.3,91,0.00,,,0.92,WUHU216HW,2013-03-11 02:13:00,
2013-03-10 21:18:00,30.1,27.8,29.91,NW,315,6.9,7.8,91,0.00,,,0.92,WUHU216HW,2013-03-11 02:18:00,
2013-03-10 21:23:00,30.1,27.8,29.91,NW,315,4.9,6.9,91,0.00,,,0.92,WUHU216HW,2013-03-11 02:23:00,
2013-03-10 21:29:00,29.9,27.6,29.91,NW,315,7.8,7.8,91,0.00,,,0.92,WUHU216HW,2013-03-11 02:29:00,
2013-03-10 21:34:00,29.9,27.6,29.91,NW,315,5.6,7.8,91,0.00,,,0.92,WUHU216HW,2013-03-11 02:34:00,
2013-03-10 21:39:00,29.9,27.6,29.92,NW,315,4.0,6.7,91,0.00,,,0.92,WUHU216HW,2013-03-11 02:39:00,
2013-03-10 21:44:00,29.9,27.6,29.92,NW,315,6.3,7.6,91,0.00,,,0.92,WUHU216HW,2013-03-11 02:44:00,
2013-03-10 21:49:00,29.9,27.4,29.92,NW,315,6.0,8.1,90,0.00,,,0.92,WUHU216HW,2013-03-11 02:49:00,
2013-03-10 21:54:00,29.9,27.4,29.92,NW,315,8.5,10.5,90,0.00,,,0.92,WUHU216HW,2013-03-11 02:54:00,
2013-03-10 21:59:00,29.9,27.1,29.92,NW,315,9.6,10.5,89,0.00,,,0.92,WUHU216HW,2013-03-11 02:59:00,
2013-03-10 22:04:00,29.9,27.1,29.93,NW,315,2.9,10.5,89,0.00,,,0.92,WUHU216HW,2013-03-11 03:04:00,
2013-03-10 22:09:00,29.9,27.1,29.93,NW,315,8.5,11.0,89,0.00,,,0.92,WUHU216HW,2013-03-11 03:09:00,
2013-03-10 22:14:00,29.9,26.8,29.93,NW,315,10.1,11.0,88,0.00,,,0.92,WUHU216HW,2013-03-11 03:14:00,
2013-03-10 22:20:00,29.9,26.8,29.93,NW,315,8.1,10.1,88,0.00,,,0.92,WUHU216HW,2013-03-11 03:20:00,
2013-03-10 22:25:00,29.9,27.1,29.93,NW,315,4.5,10.1,89,0.00,,,0.92,WUHU216HW,2013-03-11 03:25:00,
2013-03-10 22:30:00,29.9,27.1,29.93,NW,315,3.6,8.1,89,0.00,,,0.92,WUHU216HW,2013-03-11 03:30:00,
2013-03-10 22:35:00,29.9,26.8,29.93,NW,315,6.9,10.3,88,0.00,,,0.92,WUHU216HW,2013-03-11 03:35:00,
2013-03-10 22:40:00,29.9,26.8,29.94,NW,315,4.0,10.3,88,0.00,,,0.92,WUHU216HW,2013-03-11 03:40:00,
2013-03-10 22:45:00,29.9,26.8,29.93,NW,315,3.4,8.9,88,0.00,,,0.92,WUHU216HW,2013-03-11 03:45:00,
2013-03-10 22:50:00,29.9,26.8,29.94,NW,315,9.2,9.2,88,0.00,,,0.92,WUHU216HW,2013-03-11 03:50:00,
2013-03-10 22:55:00,29.9,26.8,29.94,NW,315,8.5,9.2,88,0.00,,,0.92,WUHU216HW,2013-03-11 03:55:00,
2013-03-10 23:00:00,29.9,26.8,29.94,NW,315,9.8,9.8,88,0.00,,,0.92,WUHU216HW,2013-03-11 04:00:00,
2013-03-10 23:06:00,29.7,26.7,29.94,NW,315,6.5,9.8,88,0.00,,,0.92,WUHU216HW,2013-03-11 04:06:00,
2013-03-10 23:11:00,29.7,26.7,29.94,NW,315,2.5,9.2,88,0.00,,,0.92,WUHU216HW,2013-03-11 04:11:00,
2013-03-10 23:16:00,29.7,26.7,29.94,NW,315,6.7,9.2,88,0.00,,,0.92,WUHU216HW,2013-03-11 04:16:00,
2013-03-10 23:21:00,29.9,26.8,29.94,NW,315,7.6,8.7,88,0.00,,,0.92,WUHU216HW,2013-03-11 04:21:00,
2013-03-10 23:27:00,29.7,26.3,29.94,NW,315,8.1,10.5,87,0.00,,,0.92,WUHU216HW,2013-03-11 04:27:00,
2013-03-10 23:32:00,29.7,26.3,29.94,NW,315,8.7,10.5,87,0.00,,,0.92,WUHU216HW,2013-03-11 04:32:00,
2013-03-10 23:37:00,29.7,26.3,29.94,NW,315,4.7,8.7,87,0.00,,,0.92,WUHU216HW,2013-03-11 04:37:00,
2013-03-10 23:42:00,29.5,26.1,29.94,NW,315,5.4,14.5,87,0.00,,,0.92,WUHU216HW,2013-03-11 04:42:00,
2013-03-10 23:47:00,29.5,25.8,29.94,NW,315,8.1,14.5,86,0.00,,,0.92,WUHU216HW,2013-03-11 04:47:00,
2013-03-10 23:52:00,29.3,25.7,29.94,NW,315,10.5,12.1,86,0.00,,,0.92,WUHU216HW,2013-03-11 04:52:00,
2013-03-10 23:57:00,29.3,25.9,29.94,NW,315,10.7,10.7,87,0.00,,,0.92,WUHU216HW,2013-03-11 04:57:00,